sensor_id;sensor_type;location;lat;lon;timestamp;P1;durP1;ratioP1;P2;durP2;ratioP2
40871;SDS011;26591;43.264;26.940;2023-08-24T00:02:05;10.57;;;6.85;;
40871;SDS011;26591;43.264;26.940;2023-08-24T00:04:31;10.35;;;7.22;;
40871;SDS011;26591;43.264;26.940;2023-08-24T00:06:57;10.07;;;7.68;;
40871;SDS011;26591;43.264;26.940;2023-08-24T00:09:22;12.68;;;7.22;;
40871;SDS011;26591;43.264;26.940;2023-08-24T00:11:48;10.57;;;7.03;;
40871;SDS011;26591;43.264;26.940;2023-08-24T00:14:13;12.05;;;7.30;;
40871;SDS011;26591;43.264;26.940;2023-08-24T00:16:39;10.35;;;8.07;;
40871;SDS011;26591;43.264;26.940;2023-08-24T00:19:05;8.88;;;7.70;;
40871;SDS011;26591;43.264;26.940;2023-08-24T00:21:32;8.55;;;7.47;;
40871;SDS011;26591;43.264;26.940;2023-08-24T00:23:57;10.48;;;7.53;;
40871;SDS011;26591;43.264;26.940;2023-08-24T00:26:24;10.10;;;8.10;;
40871;SDS011;26591;43.264;26.940;2023-08-24T00:28:50;11.77;;;7.63;;
40871;SDS011;26591;43.264;26.940;2023-08-24T00:31:16;11.23;;;8.00;;
40871;SDS011;26591;43.264;26.940;2023-08-24T00:33:41;12.68;;;7.82;;
40871;SDS011;26591;43.264;26.940;2023-08-24T00:36:07;14.00;;;8.10;;
40871;SDS011;26591;43.264;26.940;2023-08-24T00:38:32;8.55;;;7.40;;
40871;SDS011;26591;43.264;26.940;2023-08-24T00:40:58;11.18;;;7.68;;
40871;SDS011;26591;43.264;26.940;2023-08-24T00:43:25;10.80;;;8.05;;
40871;SDS011;26591;43.264;26.940;2023-08-24T00:45:51;10.00;;;7.25;;
40871;SDS011;26591;43.264;26.940;2023-08-24T00:48:18;10.35;;;7.85;;
40871;SDS011;26591;43.264;26.940;2023-08-24T00:50:45;10.80;;;7.82;;
40871;SDS011;26591;43.264;26.940;2023-08-24T00:53:11;13.70;;;8.05;;
40871;SDS011;26591;43.264;26.940;2023-08-24T00:55:37;12.95;;;7.50;;
40871;SDS011;26591;43.264;26.940;2023-08-24T00:58:03;10.82;;;7.80;;
40871;SDS011;26591;43.264;26.940;2023-08-24T01:00:29;11.90;;;7.60;;
40871;SDS011;26591;43.264;26.940;2023-08-24T01:02:54;9.65;;;7.10;;
40871;SDS011;26591;43.264;26.940;2023-08-24T01:05:20;12.52;;;7.90;;
40871;SDS011;26591;43.264;26.940;2023-08-24T01:07:45;9.80;;;7.72;;
40871;SDS011;26591;43.264;26.940;2023-08-24T01:10:11;13.88;;;7.65;;
40871;SDS011;26591;43.264;26.940;2023-08-24T01:12:55;20.27;;;8.02;;
40871;SDS011;26591;43.264;26.940;2023-08-24T01:18:25;10.82;;;8.48;;
40871;SDS011;26591;43.264;26.940;2023-08-24T01:20:54;10.13;;;7.80;;
40871;SDS011;26591;43.264;26.940;2023-08-24T01:26:19;14.60;;;7.60;;
40871;SDS011;26591;43.264;26.940;2023-08-24T01:28:45;11.20;;;8.07;;
40871;SDS011;26591;43.264;26.940;2023-08-24T01:31:13;9.43;;;7.93;;
40871;SDS011;26591;43.264;26.940;2023-08-24T01:33:42;11.63;;;8.30;;
40871;SDS011;26591;43.264;26.940;2023-08-24T01:36:08;10.43;;;7.85;;
40871;SDS011;26591;43.264;26.940;2023-08-24T01:38:36;10.13;;;7.63;;
40871;SDS011;26591;43.264;26.940;2023-08-24T01:41:12;10.10;;;7.80;;
40871;SDS011;26591;43.264;26.940;2023-08-24T01:43:45;14.90;;;7.53;;
40871;SDS011;26591;43.264;26.940;2023-08-24T01:46:14;13.27;;;7.82;;
40871;SDS011;26591;43.264;26.940;2023-08-24T01:48:43;10.77;;;7.90;;
40871;SDS011;26591;43.264;26.940;2023-08-24T01:51:10;10.55;;;7.65;;
40871;SDS011;26591;43.264;26.940;2023-08-24T01:53:37;19.55;;;8.60;;
40871;SDS011;26591;43.264;26.940;2023-08-24T01:56:08;10.07;;;8.13;;
40871;SDS011;26591;43.264;26.940;2023-08-24T01:58:37;13.57;;;7.32;;
40871;SDS011;26591;43.264;26.940;2023-08-24T02:01:04;11.27;;;8.00;;
40871;SDS011;26591;43.264;26.940;2023-08-24T02:03:30;12.70;;;8.02;;
40871;SDS011;26591;43.264;26.940;2023-08-24T02:05:56;13.15;;;8.07;;
40871;SDS011;26591;43.264;26.940;2023-08-24T02:08:21;11.57;;;8.68;;
40871;SDS011;26591;43.264;26.940;2023-08-24T02:10:47;10.18;;;8.27;;
40871;SDS011;26591;43.264;26.940;2023-08-24T02:13:12;11.93;;;8.20;;
40871;SDS011;26591;43.264;26.940;2023-08-24T02:15:38;12.32;;;8.45;;
40871;SDS011;26591;43.264;26.940;2023-08-24T02:18:04;9.73;;;8.32;;
40871;SDS011;26591;43.264;26.940;2023-08-24T02:20:34;15.25;;;8.07;;
40871;SDS011;26591;43.264;26.940;2023-08-24T02:23:00;9.65;;;8.18;;
40871;SDS011;26591;43.264;26.940;2023-08-24T02:25:26;10.15;;;7.70;;
40871;SDS011;26591;43.264;26.940;2023-08-24T02:27:51;12.73;;;8.32;;
40871;SDS011;26591;43.264;26.940;2023-08-24T02:30:17;12.25;;;8.02;;
40871;SDS011;26591;43.264;26.940;2023-08-24T02:32:42;11.65;;;7.95;;
40871;SDS011;26591;43.264;26.940;2023-08-24T02:35:08;13.65;;;8.40;;
40871;SDS011;26591;43.264;26.940;2023-08-24T02:37:34;12.68;;;8.25;;
40871;SDS011;26591;43.264;26.940;2023-08-24T02:39:59;14.25;;;7.55;;
40871;SDS011;26591;43.264;26.940;2023-08-24T02:42:24;18.67;;;9.10;;
40871;SDS011;26591;43.264;26.940;2023-08-24T02:44:50;17.88;;;8.23;;
40871;SDS011;26591;43.264;26.940;2023-08-24T02:47:16;9.85;;;7.93;;
40871;SDS011;26591;43.264;26.940;2023-08-24T02:49:41;10.02;;;8.00;;
40871;SDS011;26591;43.264;26.940;2023-08-24T02:52:07;11.63;;;7.57;;
40871;SDS011;26591;43.264;26.940;2023-08-24T02:54:33;9.48;;;8.45;;
40871;SDS011;26591;43.264;26.940;2023-08-24T02:56:59;12.10;;;7.43;;
40871;SDS011;26591;43.264;26.940;2023-08-24T02:59:25;16.88;;;7.90;;
40871;SDS011;26591;43.264;26.940;2023-08-24T03:01:51;8.65;;;7.75;;
40871;SDS011;26591;43.264;26.940;2023-08-24T03:04:16;11.52;;;8.27;;
40871;SDS011;26591;43.264;26.940;2023-08-24T03:06:43;9.43;;;7.80;;
40871;SDS011;26591;43.264;26.940;2023-08-24T03:09:09;9.82;;;8.80;;
40871;SDS011;26591;43.264;26.940;2023-08-24T03:11:35;19.23;;;9.07;;
40871;SDS011;26591;43.264;26.940;2023-08-24T03:14:00;12.85;;;8.88;;
40871;SDS011;26591;43.264;26.940;2023-08-24T03:16:26;14.93;;;9.05;;
40871;SDS011;26591;43.264;26.940;2023-08-24T03:18:51;15.73;;;9.30;;
40871;SDS011;26591;43.264;26.940;2023-08-24T03:21:17;16.10;;;9.40;;
40871;SDS011;26591;43.264;26.940;2023-08-24T03:23:42;17.27;;;8.85;;
40871;SDS011;26591;43.264;26.940;2023-08-24T03:26:08;16.38;;;9.88;;
40871;SDS011;26591;43.264;26.940;2023-08-24T03:28:33;18.08;;;10.05;;
40871;SDS011;26591;43.264;26.940;2023-08-24T03:30:59;11.60;;;8.82;;
40871;SDS011;26591;43.264;26.940;2023-08-24T03:33:25;11.93;;;9.13;;
40871;SDS011;26591;43.264;26.940;2023-08-24T03:35:53;18.55;;;9.18;;
40871;SDS011;26591;43.264;26.940;2023-08-24T03:38:18;15.73;;;9.30;;
40871;SDS011;26591;43.264;26.940;2023-08-24T03:40:44;13.93;;;9.65;;
40871;SDS011;26591;43.264;26.940;2023-08-24T03:43:10;21.15;;;9.05;;
40871;SDS011;26591;43.264;26.940;2023-08-24T03:45:36;20.92;;;8.80;;
40871;SDS011;26591;43.264;26.940;2023-08-24T03:48:01;17.85;;;8.85;;
40871;SDS011;26591;43.264;26.940;2023-08-24T03:50:27;11.48;;;7.90;;
40871;SDS011;26591;43.264;26.940;2023-08-24T03:52:53;14.93;;;8.52;;
40871;SDS011;26591;43.264;26.940;2023-08-24T03:55:19;10.57;;;7.55;;
40871;SDS011;26591;43.264;26.940;2023-08-24T03:57:45;10.23;;;7.82;;
40871;SDS011;26591;43.264;26.940;2023-08-24T04:00:11;9.35;;;7.55;;
40871;SDS011;26591;43.264;26.940;2023-08-24T04:02:38;14.70;;;8.02;;
40871;SDS011;26591;43.264;26.940;2023-08-24T04:05:03;15.05;;;8.13;;
40871;SDS011;26591;43.264;26.940;2023-08-24T04:07:29;12.07;;;8.05;;
40871;SDS011;26591;43.264;26.940;2023-08-24T04:09:56;11.57;;;7.63;;
40871;SDS011;26591;43.264;26.940;2023-08-24T04:12:21;15.50;;;7.93;;
40871;SDS011;26591;43.264;26.940;2023-08-24T04:14:47;11.40;;;7.50;;
40871;SDS011;26591;43.264;26.940;2023-08-24T04:17:12;19.30;;;7.93;;
40871;SDS011;26591;43.264;26.940;2023-08-24T04:19:38;12.65;;;7.32;;
40871;SDS011;26591;43.264;26.940;2023-08-24T04:22:04;22.45;;;8.38;;
40871;SDS011;26591;43.264;26.940;2023-08-24T04:24:30;12.98;;;7.63;;
40871;SDS011;26591;43.264;26.940;2023-08-24T04:26:55;20.27;;;7.82;;
40871;SDS011;26591;43.264;26.940;2023-08-24T04:29:21;12.77;;;7.68;;
40871;SDS011;26591;43.264;26.940;2023-08-24T04:31:47;15.43;;;7.82;;
40871;SDS011;26591;43.264;26.940;2023-08-24T04:34:12;9.63;;;6.93;;
40871;SDS011;26591;43.264;26.940;2023-08-24T04:36:38;18.02;;;7.78;;
40871;SDS011;26591;43.264;26.940;2023-08-24T04:39:03;13.77;;;7.25;;
40871;SDS011;26591;43.264;26.940;2023-08-24T04:41:29;16.85;;;7.95;;
40871;SDS011;26591;43.264;26.940;2023-08-24T04:43:54;14.82;;;7.57;;
40871;SDS011;26591;43.264;26.940;2023-08-24T04:46:20;13.25;;;7.05;;
40871;SDS011;26591;43.264;26.940;2023-08-24T04:48:45;12.30;;;6.97;;
40871;SDS011;26591;43.264;26.940;2023-08-24T04:51:11;14.25;;;7.22;;
40871;SDS011;26591;43.264;26.940;2023-08-24T04:53:36;10.35;;;6.60;;
40871;SDS011;26591;43.264;26.940;2023-08-24T04:56:02;14.98;;;6.72;;
40871;SDS011;26591;43.264;26.940;2023-08-24T04:58:27;17.13;;;6.72;;
40871;SDS011;26591;43.264;26.940;2023-08-24T05:00:53;14.98;;;6.75;;
40871;SDS011;26591;43.264;26.940;2023-08-24T05:03:20;12.70;;;6.63;;
40871;SDS011;26591;43.264;26.940;2023-08-24T05:05:46;12.10;;;5.95;;
40871;SDS011;26591;43.264;26.940;2023-08-24T05:08:12;11.75;;;6.20;;
40871;SDS011;26591;43.264;26.940;2023-08-24T05:10:38;14.23;;;6.03;;
40871;SDS011;26591;43.264;26.940;2023-08-24T05:13:03;12.75;;;5.95;;
40871;SDS011;26591;43.264;26.940;2023-08-24T05:15:29;20.52;;;7.22;;
40871;SDS011;26591;43.264;26.940;2023-08-24T05:17:55;15.98;;;6.38;;
40871;SDS011;26591;43.264;26.940;2023-08-24T05:20:21;16.45;;;6.32;;
40871;SDS011;26591;43.264;26.940;2023-08-24T05:22:47;13.43;;;5.95;;
40871;SDS011;26591;43.264;26.940;2023-08-24T05:25:14;13.57;;;6.13;;
40871;SDS011;26591;43.264;26.940;2023-08-24T05:27:41;16.40;;;6.53;;
40871;SDS011;26591;43.264;26.940;2023-08-24T05:30:07;22.50;;;6.55;;
40871;SDS011;26591;43.264;26.940;2023-08-24T05:32:34;12.65;;;5.90;;
40871;SDS011;26591;43.264;26.940;2023-08-24T05:35:03;16.23;;;6.20;;
40871;SDS011;26591;43.264;26.940;2023-08-24T05:37:30;11.88;;;6.60;;
40871;SDS011;26591;43.264;26.940;2023-08-24T05:39:55;15.38;;;7.57;;
40871;SDS011;26591;43.264;26.940;2023-08-24T05:42:21;16.65;;;7.13;;
40871;SDS011;26591;43.264;26.940;2023-08-24T05:44:46;13.82;;;7.15;;
40871;SDS011;26591;43.264;26.940;2023-08-24T05:47:12;23.63;;;8.40;;
40871;SDS011;26591;43.264;26.940;2023-08-24T05:49:37;15.35;;;6.85;;
40871;SDS011;26591;43.264;26.940;2023-08-24T05:52:03;12.55;;;6.22;;
40871;SDS011;26591;43.264;26.940;2023-08-24T05:54:29;14.50;;;7.05;;
40871;SDS011;26591;43.264;26.940;2023-08-24T05:56:54;19.48;;;6.78;;
40871;SDS011;26591;43.264;26.940;2023-08-24T05:59:20;13.02;;;7.07;;
40871;SDS011;26591;43.264;26.940;2023-08-24T06:01:46;19.10;;;7.30;;
40871;SDS011;26591;43.264;26.940;2023-08-24T06:04:11;18.20;;;7.35;;
40871;SDS011;26591;43.264;26.940;2023-08-24T06:06:37;24.35;;;7.70;;
40871;SDS011;26591;43.264;26.940;2023-08-24T06:09:03;23.95;;;7.68;;
40871;SDS011;26591;43.264;26.940;2023-08-24T06:11:34;22.40;;;7.22;;
40871;SDS011;26591;43.264;26.940;2023-08-24T06:14:01;23.67;;;7.80;;
40871;SDS011;26591;43.264;26.940;2023-08-24T06:16:30;16.05;;;8.07;;
40871;SDS011;26591;43.264;26.940;2023-08-24T06:18:55;30.45;;;9.43;;
40871;SDS011;26591;43.264;26.940;2023-08-24T06:21:21;28.42;;;8.88;;
40871;SDS011;26591;43.264;26.940;2023-08-24T06:23:46;19.90;;;8.60;;
40871;SDS011;26591;43.264;26.940;2023-08-24T06:26:15;21.35;;;8.35;;
40871;SDS011;26591;43.264;26.940;2023-08-24T06:28:42;19.55;;;7.35;;
40871;SDS011;26591;43.264;26.940;2023-08-24T06:31:08;22.40;;;7.32;;
40871;SDS011;26591;43.264;26.940;2023-08-24T06:33:34;17.58;;;8.15;;
40871;SDS011;26591;43.264;26.940;2023-08-24T06:36:00;22.42;;;7.22;;
40871;SDS011;26591;43.264;26.940;2023-08-24T06:38:27;18.05;;;7.00;;
40871;SDS011;26591;43.264;26.940;2023-08-24T06:40:53;13.63;;;6.60;;
40871;SDS011;26591;43.264;26.940;2023-08-24T06:43:19;14.20;;;6.63;;
40871;SDS011;26591;43.264;26.940;2023-08-24T06:45:45;15.93;;;6.75;;
40871;SDS011;26591;43.264;26.940;2023-08-24T06:48:10;14.77;;;7.20;;
40871;SDS011;26591;43.264;26.940;2023-08-24T06:50:36;11.40;;;6.90;;
40871;SDS011;26591;43.264;26.940;2023-08-24T06:53:02;20.60;;;8.45;;
40871;SDS011;26591;43.264;26.940;2023-08-24T06:55:30;18.55;;;7.05;;
40871;SDS011;26591;43.264;26.940;2023-08-24T06:57:56;14.77;;;6.53;;
40871;SDS011;26591;43.264;26.940;2023-08-24T07:00:22;10.50;;;6.30;;
40871;SDS011;26591;43.264;26.940;2023-08-24T07:02:48;12.95;;;6.63;;
40871;SDS011;26591;43.264;26.940;2023-08-24T07:05:16;15.80;;;5.93;;
40871;SDS011;26591;43.264;26.940;2023-08-24T07:07:45;10.38;;;5.82;;
40871;SDS011;26591;43.264;26.940;2023-08-24T07:10:11;10.55;;;5.53;;
40871;SDS011;26591;43.264;26.940;2023-08-24T07:12:37;7.07;;;5.68;;
40871;SDS011;26591;43.264;26.940;2023-08-24T07:15:05;10.10;;;5.60;;
40871;SDS011;26591;43.264;26.940;2023-08-24T07:17:34;11.48;;;5.90;;
40871;SDS011;26591;43.264;26.940;2023-08-24T07:20:00;9.57;;;6.10;;
40871;SDS011;26591;43.264;26.940;2023-08-24T07:22:25;9.05;;;6.55;;
40871;SDS011;26591;43.264;26.940;2023-08-24T07:24:53;9.40;;;6.10;;
40871;SDS011;26591;43.264;26.940;2023-08-24T07:27:19;8.73;;;5.70;;
40871;SDS011;26591;43.264;26.940;2023-08-24T07:29:45;11.68;;;5.97;;
40871;SDS011;26591;43.264;26.940;2023-08-24T07:32:10;10.68;;;6.25;;
40871;SDS011;26591;43.264;26.940;2023-08-24T07:34:36;10.43;;;5.38;;
40871;SDS011;26591;43.264;26.940;2023-08-24T07:37:01;11.02;;;5.55;;
40871;SDS011;26591;43.264;26.940;2023-08-24T07:39:27;10.68;;;6.05;;
40871;SDS011;26591;43.264;26.940;2023-08-24T07:41:53;7.70;;;5.53;;
40871;SDS011;26591;43.264;26.940;2023-08-24T07:44:18;5.80;;;4.85;;
40871;SDS011;26591;43.264;26.940;2023-08-24T07:46:44;9.25;;;5.50;;
40871;SDS011;26591;43.264;26.940;2023-08-24T07:49:09;6.97;;;5.45;;
40871;SDS011;26591;43.264;26.940;2023-08-24T07:51:35;10.48;;;6.00;;
40871;SDS011;26591;43.264;26.940;2023-08-24T07:54:01;12.98;;;5.70;;
40871;SDS011;26591;43.264;26.940;2023-08-24T07:56:26;12.60;;;5.90;;
40871;SDS011;26591;43.264;26.940;2023-08-24T07:58:52;9.27;;;5.60;;
40871;SDS011;26591;43.264;26.940;2023-08-24T08:01:17;10.25;;;5.50;;
40871;SDS011;26591;43.264;26.940;2023-08-24T08:03:43;6.10;;;5.45;;
40871;SDS011;26591;43.264;26.940;2023-08-24T08:06:09;10.88;;;5.80;;
40871;SDS011;26591;43.264;26.940;2023-08-24T08:08:34;14.70;;;5.43;;
40871;SDS011;26591;43.264;26.940;2023-08-24T08:11:00;11.18;;;5.50;;
40871;SDS011;26591;43.264;26.940;2023-08-24T08:13:27;12.02;;;5.82;;
40871;SDS011;26591;43.264;26.940;2023-08-24T08:15:53;10.98;;;5.25;;
40871;SDS011;26591;43.264;26.940;2023-08-24T08:18:19;7.15;;;5.82;;
40871;SDS011;26591;43.264;26.940;2023-08-24T08:20:44;6.30;;;5.00;;
40871;SDS011;26591;43.264;26.940;2023-08-24T08:23:10;9.65;;;6.18;;
40871;SDS011;26591;43.264;26.940;2023-08-24T08:25:35;12.02;;;6.20;;
40871;SDS011;26591;43.264;26.940;2023-08-24T08:28:01;13.63;;;7.45;;
40871;SDS011;26591;43.264;26.940;2023-08-24T08:30:26;9.02;;;5.65;;
40871;SDS011;26591;43.264;26.940;2023-08-24T08:32:52;14.70;;;6.38;;
40871;SDS011;26591;43.264;26.940;2023-08-24T08:35:19;10.82;;;5.75;;
40871;SDS011;26591;43.264;26.940;2023-08-24T08:37:45;9.75;;;5.70;;
40871;SDS011;26591;43.264;26.940;2023-08-24T08:40:11;9.80;;;5.65;;
40871;SDS011;26591;43.264;26.940;2023-08-24T08:42:37;8.85;;;5.97;;
40871;SDS011;26591;43.264;26.940;2023-08-24T08:45:04;8.82;;;5.88;;
40871;SDS011;26591;43.264;26.940;2023-08-24T08:47:33;10.65;;;5.38;;
40871;SDS011;26591;43.264;26.940;2023-08-24T08:49:59;7.47;;;5.82;;
40871;SDS011;26591;43.264;26.940;2023-08-24T08:52:28;7.65;;;5.65;;
40871;SDS011;26591;43.264;26.940;2023-08-24T08:54:54;7.03;;;5.78;;
40871;SDS011;26591;43.264;26.940;2023-08-24T08:57:20;6.40;;;5.72;;
40871;SDS011;26591;43.264;26.940;2023-08-24T08:59:48;6.65;;;5.53;;
40871;SDS011;26591;43.264;26.940;2023-08-24T09:02:16;7.50;;;5.20;;
40871;SDS011;26591;43.264;26.940;2023-08-24T09:04:44;9.53;;;5.53;;
40871;SDS011;26591;43.264;26.940;2023-08-24T09:07:10;11.93;;;5.93;;
40871;SDS011;26591;43.264;26.940;2023-08-24T09:09:38;8.38;;;5.80;;
40871;SDS011;26591;43.264;26.940;2023-08-24T09:12:04;15.32;;;5.65;;
40871;SDS011;26591;43.264;26.940;2023-08-24T09:14:31;10.50;;;6.15;;
40871;SDS011;26591;43.264;26.940;2023-08-24T09:16:57;11.60;;;5.75;;
40871;SDS011;26591;43.264;26.940;2023-08-24T09:19:29;7.60;;;5.50;;
40871;SDS011;26591;43.264;26.940;2023-08-24T09:21:56;10.80;;;6.20;;
40871;SDS011;26591;43.264;26.940;2023-08-24T09:24:33;8.60;;;5.63;;
40871;SDS011;26591;43.264;26.940;2023-08-24T09:27:00;11.48;;;6.00;;
40871;SDS011;26591;43.264;26.940;2023-08-24T09:29:39;11.60;;;6.15;;
40871;SDS011;26591;43.264;26.940;2023-08-24T09:32:07;9.40;;;5.85;;
40871;SDS011;26591;43.264;26.940;2023-08-24T09:34:33;14.20;;;5.80;;
40871;SDS011;26591;43.264;26.940;2023-08-24T09:37:01;9.73;;;5.65;;
40871;SDS011;26591;43.264;26.940;2023-08-24T09:39:29;10.75;;;5.88;;
40871;SDS011;26591;43.264;26.940;2023-08-24T09:41:55;8.30;;;6.05;;
40871;SDS011;26591;43.264;26.940;2023-08-24T09:44:28;10.32;;;5.30;;
40871;SDS011;26591;43.264;26.940;2023-08-24T09:46:53;12.48;;;5.78;;
40871;SDS011;26591;43.264;26.940;2023-08-24T09:49:19;9.73;;;5.72;;
40871;SDS011;26591;43.264;26.940;2023-08-24T09:51:45;7.85;;;5.47;;
40871;SDS011;26591;43.264;26.940;2023-08-24T09:54:11;10.18;;;5.90;;
40871;SDS011;26591;43.264;26.940;2023-08-24T09:56:39;7.15;;;5.55;;
40871;SDS011;26591;43.264;26.940;2023-08-24T10:01:41;10.90;;;5.43;;
40871;SDS011;26591;43.264;26.940;2023-08-24T10:04:12;10.93;;;4.90;;
40871;SDS011;26591;43.264;26.940;2023-08-24T10:06:42;7.22;;;5.13;;
40871;SDS011;26591;43.264;26.940;2023-08-24T10:09:11;8.30;;;5.63;;
40871;SDS011;26591;43.264;26.940;2023-08-24T10:11:46;10.35;;;5.65;;
40871;SDS011;26591;43.264;26.940;2023-08-24T10:14:24;10.25;;;5.45;;
40871;SDS011;26591;43.264;26.940;2023-08-24T10:16:50;11.75;;;5.63;;
40871;SDS011;26591;43.264;26.940;2023-08-24T10:19:17;10.73;;;5.57;;
40871;SDS011;26591;43.264;26.940;2023-08-24T10:21:44;11.00;;;5.68;;
40871;SDS011;26591;43.264;26.940;2023-08-24T10:24:11;8.02;;;5.32;;
40871;SDS011;26591;43.264;26.940;2023-08-24T10:26:38;19.23;;;6.15;;
40871;SDS011;26591;43.264;26.940;2023-08-24T10:29:05;10.10;;;5.57;;
40871;SDS011;26591;43.264;26.940;2023-08-24T10:31:31;8.75;;;4.97;;
40871;SDS011;26591;43.264;26.940;2023-08-24T10:33:57;10.00;;;5.63;;
40871;SDS011;26591;43.264;26.940;2023-08-24T10:36:24;5.43;;;4.93;;
40871;SDS011;26591;43.264;26.940;2023-08-24T10:38:51;11.90;;;5.53;;
40871;SDS011;26591;43.264;26.940;2023-08-24T10:41:25;11.30;;;5.95;;
40871;SDS011;26591;43.264;26.940;2023-08-24T10:43:52;6.55;;;5.20;;
40871;SDS011;26591;43.264;26.940;2023-08-24T10:46:17;9.32;;;5.28;;
40871;SDS011;26591;43.264;26.940;2023-08-24T10:56:57;9.88;;;5.22;;
40871;SDS011;26591;43.264;26.940;2023-08-24T10:59:23;9.70;;;4.90;;
40871;SDS011;26591;43.264;26.940;2023-08-24T11:04:17;10.80;;;5.57;;
40871;SDS011;26591;43.264;26.940;2023-08-24T11:06:56;6.78;;;4.75;;
40871;SDS011;26591;43.264;26.940;2023-08-24T11:09:24;8.90;;;5.72;;
40871;SDS011;26591;43.264;26.940;2023-08-24T11:11:59;7.75;;;4.88;;
40871;SDS011;26591;43.264;26.940;2023-08-24T11:14:26;6.95;;;4.97;;
40871;SDS011;26591;43.264;26.940;2023-08-24T11:16:52;11.75;;;5.22;;
40871;SDS011;26591;43.264;26.940;2023-08-24T11:19:18;11.30;;;5.20;;
40871;SDS011;26591;43.264;26.940;2023-08-24T11:21:44;5.95;;;5.30;;
40871;SDS011;26591;43.264;26.940;2023-08-24T11:24:14;13.20;;;5.85;;
40871;SDS011;26591;43.264;26.940;2023-08-24T11:26:42;13.15;;;6.90;;
40871;SDS011;26591;43.264;26.940;2023-08-24T11:29:09;17.50;;;5.90;;
40871;SDS011;26591;43.264;26.940;2023-08-24T11:31:35;14.20;;;6.20;;
40871;SDS011;26591;43.264;26.940;2023-08-24T11:34:01;27.38;;;7.03;;
40871;SDS011;26591;43.264;26.940;2023-08-24T11:36:28;29.80;;;9.07;;
40871;SDS011;26591;43.264;26.940;2023-08-24T11:38:56;21.88;;;8.43;;
40871;SDS011;26591;43.264;26.940;2023-08-24T11:41:23;20.38;;;8.50;;
40871;SDS011;26591;43.264;26.940;2023-08-24T11:43:48;15.90;;;9.43;;
40871;SDS011;26591;43.264;26.940;2023-08-24T11:46:23;21.42;;;9.98;;
40871;SDS011;26591;43.264;26.940;2023-08-24T11:48:48;21.55;;;9.90;;
40871;SDS011;26591;43.264;26.940;2023-08-24T11:51:14;18.25;;;10.07;;
40871;SDS011;26591;43.264;26.940;2023-08-24T11:53:40;11.35;;;9.20;;
40871;SDS011;26591;43.264;26.940;2023-08-24T11:56:13;15.15;;;9.38;;
40871;SDS011;26591;43.264;26.940;2023-08-24T11:58:42;14.55;;;9.57;;
40871;SDS011;26591;43.264;26.940;2023-08-24T12:01:09;13.38;;;9.73;;
40871;SDS011;26591;43.264;26.940;2023-08-24T12:03:36;12.23;;;9.55;;
40871;SDS011;26591;43.264;26.940;2023-08-24T12:06:02;16.85;;;8.73;;
40871;SDS011;26591;43.264;26.940;2023-08-24T12:08:37;12.98;;;8.65;;
40871;SDS011;26591;43.264;26.940;2023-08-24T12:11:19;10.57;;;8.70;;
40871;SDS011;26591;43.264;26.940;2023-08-24T12:13:49;11.38;;;8.68;;
40871;SDS011;26591;43.264;26.940;2023-08-24T12:16:16;10.18;;;9.18;;
40871;SDS011;26591;43.264;26.940;2023-08-24T12:18:55;9.07;;;8.10;;
40871;SDS011;26591;43.264;26.940;2023-08-24T12:21:24;12.73;;;9.13;;
40871;SDS011;26591;43.264;26.940;2023-08-24T12:24:03;10.00;;;8.77;;
40871;SDS011;26591;43.264;26.940;2023-08-24T12:26:33;11.27;;;8.68;;
40871;SDS011;26591;43.264;26.940;2023-08-24T12:29:03;13.05;;;8.48;;
40871;SDS011;26591;43.264;26.940;2023-08-24T12:31:33;12.57;;;7.95;;
40871;SDS011;26591;43.264;26.940;2023-08-24T12:36:25;8.90;;;7.57;;
40871;SDS011;26591;43.264;26.940;2023-08-24T12:38:50;8.80;;;7.40;;
40871;SDS011;26591;43.264;26.940;2023-08-24T12:41:16;13.18;;;8.05;;
40871;SDS011;26591;43.264;26.940;2023-08-24T12:43:41;11.07;;;7.88;;
40871;SDS011;26591;43.264;26.940;2023-08-24T12:46:06;13.60;;;7.93;;
40871;SDS011;26591;43.264;26.940;2023-08-24T12:48:32;8.07;;;5.13;;
40871;SDS011;26591;43.264;26.940;2023-08-24T12:50:57;14.13;;;5.68;;
40871;SDS011;26591;43.264;26.940;2023-08-24T12:53:23;13.85;;;6.43;;
40871;SDS011;26591;43.264;26.940;2023-08-24T12:55:49;6.32;;;4.38;;
40871;SDS011;26591;43.264;26.940;2023-08-24T12:58:14;12.45;;;5.60;;
40871;SDS011;26591;43.264;26.940;2023-08-24T13:00:40;11.85;;;6.57;;
40871;SDS011;26591;43.264;26.940;2023-08-24T13:03:05;13.98;;;5.90;;
40871;SDS011;26591;43.264;26.940;2023-08-24T13:05:30;15.23;;;5.82;;
40871;SDS011;26591;43.264;26.940;2023-08-24T13:07:56;16.90;;;5.60;;
40871;SDS011;26591;43.264;26.940;2023-08-24T13:10:22;10.52;;;6.00;;
40871;SDS011;26591;43.264;26.940;2023-08-24T13:12:47;9.80;;;5.72;;
40871;SDS011;26591;43.264;26.940;2023-08-24T13:15:13;14.25;;;6.40;;
40871;SDS011;26591;43.264;26.940;2023-08-24T13:17:40;10.68;;;6.05;;
40871;SDS011;26591;43.264;26.940;2023-08-24T13:20:06;6.63;;;5.78;;
40871;SDS011;26591;43.264;26.940;2023-08-24T13:22:32;14.20;;;6.57;;
40871;SDS011;26591;43.264;26.940;2023-08-24T13:24:58;13.80;;;7.60;;
40871;SDS011;26591;43.264;26.940;2023-08-24T13:27:24;11.30;;;7.07;;
40871;SDS011;26591;43.264;26.940;2023-08-24T13:29:49;8.52;;;7.18;;
40871;SDS011;26591;43.264;26.940;2023-08-24T13:32:15;15.55;;;6.90;;
40871;SDS011;26591;43.264;26.940;2023-08-24T13:34:40;9.00;;;6.18;;
40871;SDS011;26591;43.264;26.940;2023-08-24T13:37:06;6.72;;;6.00;;
40871;SDS011;26591;43.264;26.940;2023-08-24T13:39:31;8.60;;;6.40;;
40871;SDS011;26591;43.264;26.940;2023-08-24T13:41:57;9.63;;;6.43;;
40871;SDS011;26591;43.264;26.940;2023-08-24T13:44:26;9.38;;;6.75;;
40871;SDS011;26591;43.264;26.940;2023-08-24T13:46:52;11.07;;;6.85;;
40871;SDS011;26591;43.264;26.940;2023-08-24T13:49:20;11.30;;;6.57;;
40871;SDS011;26591;43.264;26.940;2023-08-24T13:51:46;10.57;;;6.15;;
40871;SDS011;26591;43.264;26.940;2023-08-24T13:54:15;13.13;;;6.97;;
40871;SDS011;26591;43.264;26.940;2023-08-24T13:56:45;8.60;;;6.40;;
40871;SDS011;26591;43.264;26.940;2023-08-24T13:59:12;9.57;;;7.30;;
40871;SDS011;26591;43.264;26.940;2023-08-24T14:01:38;9.00;;;6.53;;
40871;SDS011;26591;43.264;26.940;2023-08-24T14:04:04;7.80;;;6.68;;
40871;SDS011;26591;43.264;26.940;2023-08-24T14:06:30;14.55;;;8.27;;
40871;SDS011;26591;43.264;26.940;2023-08-24T14:09:00;9.32;;;7.82;;
40871;SDS011;26591;43.264;26.940;2023-08-24T14:11:26;10.25;;;8.68;;
40871;SDS011;26591;43.264;26.940;2023-08-24T14:13:52;13.07;;;8.27;;
40871;SDS011;26591;43.264;26.940;2023-08-24T14:16:18;15.13;;;9.80;;
40871;SDS011;26591;43.264;26.940;2023-08-24T14:18:45;15.75;;;9.20;;
40871;SDS011;26591;43.264;26.940;2023-08-24T14:21:11;11.70;;;8.40;;
40871;SDS011;26591;43.264;26.940;2023-08-24T14:23:37;9.02;;;7.90;;
40871;SDS011;26591;43.264;26.940;2023-08-24T14:26:03;9.13;;;7.90;;
40871;SDS011;26591;43.264;26.940;2023-08-24T14:31:22;11.88;;;8.55;;
40871;SDS011;26591;43.264;26.940;2023-08-24T14:33:48;10.30;;;8.30;;
40871;SDS011;26591;43.264;26.940;2023-08-24T14:36:15;17.02;;;8.38;;
40871;SDS011;26591;43.264;26.940;2023-08-24T14:38:41;11.00;;;8.68;;
40871;SDS011;26591;43.264;26.940;2023-08-24T14:41:08;13.02;;;8.55;;
40871;SDS011;26591;43.264;26.940;2023-08-24T14:43:34;14.60;;;8.88;;
40871;SDS011;26591;43.264;26.940;2023-08-24T14:46:00;12.00;;;8.55;;